Terminal Aerodrome Forecast
Issued by NWS

Home | Current Version | Previous Version | Text Only | Print | Product List | Glossary On
Versions: 1 2 3 4 5 6 7 8 9 10 11 12 13 14 15 16 17 18 19 20 21 22 23 24 25 26 27
648
FTUS43 KDLH 211240 AAA
TAFHYR
TAF AMD
KHYR 211240Z 2113/2212 VRB03KT P6SM SKC
     FM211600 13009KT P6SM SCT250
     FM220400 15009KT 5SM BR VCSH BKN070 WS020/19035KT
     FM220700 16009KT 3SM BR VCTS BKN050CB WS020/22040KT=

USA.gov is the U.S. government's official web portal to all federal, state and local government web resources and services.